Ranchitos, New Mexico
Current Conditions -  °F | °C
As of 7:49 AM on Thursday 23 Oct 2014 (Local Time) from KAEG Reporting Station
Clear Clear  
Wind Chill: 43°   Ceiling: Unl
Heat Index: 43°   Visibility: 10mi
Dew Point: 37°   Wind: 3mph
Humidity: 81%   Direction: 320°NW
Pressure: 30.3"   Gusts: NA
Location:  35.4078°N, 106.82°W
Report Text: KAEG 231349Z 32003KT 10SM SKC 06/03 A3030
Loading
Personal Weather Stations






























Interactive Weather Map
Tropical Storm Tracking
New forecast layout! Learn more

10-Day Weather Forecast

Advertisements
Track Severe Weather on mobile